sensor_id;sensor_type;location;lat;lon;timestamp;temperature;humidity
20504;DHT22;10410;51.046;6.980;2023-06-22T00:04:22;22.10;98.20
20504;DHT22;10410;51.046;6.980;2023-06-22T00:11:22;22.10;98.30
20504;DHT22;10410;51.046;6.980;2023-06-22T00:18:23;22.00;98.50
20504;DHT22;10410;51.046;6.980;2023-06-22T00:25:28;21.90;98.60
20504;DHT22;10410;51.046;6.980;2023-06-22T00:32:28;21.90;98.70
20504;DHT22;10410;51.046;6.980;2023-06-22T00:39:29;21.90;98.80
20504;DHT22;10410;51.046;6.980;2023-06-22T00:46:29;21.80;99.00
20504;DHT22;10410;51.046;6.980;2023-06-22T00:53:30;21.80;99.10
20504;DHT22;10410;51.046;6.980;2023-06-22T01:00:37;21.80;99.20
20504;DHT22;10410;51.046;6.980;2023-06-22T01:15:11;21.80;99.20
20504;DHT22;10410;51.046;6.980;2023-06-22T01:22:16;21.80;99.40
20504;DHT22;10410;51.046;6.980;2023-06-22T01:29:18;21.80;99.50
20504;DHT22;10410;51.046;6.980;2023-06-22T01:36:22;21.80;99.60
20504;DHT22;10410;51.046;6.980;2023-06-22T01:43:27;21.70;99.80
20504;DHT22;10410;51.046;6.980;2023-06-22T01:50:28;21.70;99.80
20504;DHT22;10410;51.046;6.980;2023-06-22T01:57:29;21.60;99.80
20504;DHT22;10410;51.046;6.980;2023-06-22T02:04:53;21.50;99.90
20504;DHT22;10410;51.046;6.980;2023-06-22T02:11:56;21.50;99.90
20504;DHT22;10410;51.046;6.980;2023-06-22T02:18:57;21.50;99.90
20504;DHT22;10410;51.046;6.980;2023-06-22T02:26:03;21.40;99.90
20504;DHT22;10410;51.046;6.980;2023-06-22T02:33:04;21.20;99.90
20504;DHT22;10410;51.046;6.980;2023-06-22T02:40:06;21.20;99.90
20504;DHT22;10410;51.046;6.980;2023-06-22T02:47:09;21.10;99.90
20504;DHT22;10410;51.046;6.980;2023-06-22T02:54:10;21.10;99.90
20504;DHT22;10410;51.046;6.980;2023-06-22T03:01:11;21.00;99.90
20504;DHT22;10410;51.046;6.980;2023-06-22T03:08:16;20.90;99.90
20504;DHT22;10410;51.046;6.980;2023-06-22T03:15:17;20.90;99.90
20504;DHT22;10410;51.046;6.980;2023-06-22T03:22:17;20.80;99.90
20504;DHT22;10410;51.046;6.980;2023-06-22T03:29:17;20.80;99.90
20504;DHT22;10410;51.046;6.980;2023-06-22T03:36:18;20.80;99.90
20504;DHT22;10410;51.046;6.980;2023-06-22T03:43:23;20.80;99.90
20504;DHT22;10410;51.046;6.980;2023-06-22T03:50:23;20.80;99.90
20504;DHT22;10410;51.046;6.980;2023-06-22T03:57:24;20.80;99.90
20504;DHT22;10410;51.046;6.980;2023-06-22T04:04:24;20.90;99.90
20504;DHT22;10410;51.046;6.980;2023-06-22T04:11:25;20.90;99.90
20504;DHT22;10410;51.046;6.980;2023-06-22T04:18:25;21.00;99.90
20504;DHT22;10410;51.046;6.980;2023-06-22T04:25:26;21.10;99.90
20504;DHT22;10410;51.046;6.980;2023-06-22T04:32:26;21.10;99.90
20504;DHT22;10410;51.046;6.980;2023-06-22T04:39:27;21.20;99.90
20504;DHT22;10410;51.046;6.980;2023-06-22T04:46:27;21.30;99.90
20504;DHT22;10410;51.046;6.980;2023-06-22T04:53:28;21.30;99.90
20504;DHT22;10410;51.046;6.980;2023-06-22T05:00:30;21.30;99.90
20504;DHT22;10410;51.046;6.980;2023-06-22T05:07:31;21.20;99.90
20504;DHT22;10410;51.046;6.980;2023-06-22T05:14:32;21.20;99.90
20504;DHT22;10410;51.046;6.980;2023-06-22T05:21:32;21.20;99.90
20504;DHT22;10410;51.046;6.980;2023-06-22T05:28:33;21.30;99.90
20504;DHT22;10410;51.046;6.980;2023-06-22T05:35:34;21.30;99.90
20504;DHT22;10410;51.046;6.980;2023-06-22T05:42:34;21.40;99.90
20504;DHT22;10410;51.046;6.980;2023-06-22T05:49:35;21.40;99.90
20504;DHT22;10410;51.046;6.980;2023-06-22T05:56:35;21.40;99.90
20504;DHT22;10410;51.046;6.980;2023-06-22T06:03:35;21.40;99.90
20504;DHT22;10410;51.046;6.980;2023-06-22T06:10:41;21.50;99.90
20504;DHT22;10410;51.046;6.980;2023-06-22T06:17:48;21.70;99.90
20504;DHT22;10410;51.046;6.980;2023-06-22T06:24:49;21.80;99.90
20504;DHT22;10410;51.046;6.980;2023-06-22T06:31:49;21.90;99.90
20504;DHT22;10410;51.046;6.980;2023-06-22T06:38:53;22.10;99.90
20504;DHT22;10410;51.046;6.980;2023-06-22T06:45:53;22.30;99.90
20504;DHT22;10410;51.046;6.980;2023-06-22T06:52:54;22.50;99.90
20504;DHT22;10410;51.046;6.980;2023-06-22T06:59:55;22.60;99.90
20504;DHT22;10410;51.046;6.980;2023-06-22T07:06:56;22.60;99.90
20504;DHT22;10410;51.046;6.980;2023-06-22T07:13:56;22.70;99.90
20504;DHT22;10410;51.046;6.980;2023-06-22T07:20:57;22.90;99.90
20504;DHT22;10410;51.046;6.980;2023-06-22T07:34:59;23.50;99.90
20504;DHT22;10410;51.046;6.980;2023-06-22T07:41:59;23.90;99.90
20504;DHT22;10410;51.046;6.980;2023-06-22T07:49:00;24.20;99.90
20504;DHT22;10410;51.046;6.980;2023-06-22T07:56:01;24.40;99.90
20504;DHT22;10410;51.046;6.980;2023-06-22T08:03:06;24.70;99.90
20504;DHT22;10410;51.046;6.980;2023-06-22T08:10:11;24.80;99.90
20504;DHT22;10410;51.046;6.980;2023-06-22T08:17:12;25.00;99.90
20504;DHT22;10410;51.046;6.980;2023-06-22T08:24:12;25.30;99.90
20504;DHT22;10410;51.046;6.980;2023-06-22T08:31:13;25.60;99.90
20504;DHT22;10410;51.046;6.980;2023-06-22T08:38:14;25.90;99.90
20504;DHT22;10410;51.046;6.980;2023-06-22T08:45:17;26.20;99.90
20504;DHT22;10410;51.046;6.980;2023-06-22T08:52:18;26.50;99.90
20504;DHT22;10410;51.046;6.980;2023-06-22T08:59:20;26.70;99.90
20504;DHT22;10410;51.046;6.980;2023-06-22T09:06:21;26.90;99.90
20504;DHT22;10410;51.046;6.980;2023-06-22T09:13:21;27.20;99.90
20504;DHT22;10410;51.046;6.980;2023-06-22T09:20:22;27.60;99.90
20504;DHT22;10410;51.046;6.980;2023-06-22T09:27:23;28.00;99.90
20504;DHT22;10410;51.046;6.980;2023-06-22T09:34:23;28.20;99.90
20504;DHT22;10410;51.046;6.980;2023-06-22T09:41:24;28.50;99.90
20504;DHT22;10410;51.046;6.980;2023-06-22T09:48:24;28.70;99.90
20504;DHT22;10410;51.046;6.980;2023-06-22T09:55:25;28.80;99.90
20504;DHT22;10410;51.046;6.980;2023-06-22T10:02:25;28.80;99.70
20504;DHT22;10410;51.046;6.980;2023-06-22T10:09:25;29.10;99.60
20504;DHT22;10410;51.046;6.980;2023-06-22T10:16:30;29.30;99.00
20504;DHT22;10410;51.046;6.980;2023-06-22T10:23:31;29.10;98.90
20504;DHT22;10410;51.046;6.980;2023-06-22T10:30:31;28.90;98.80
20504;DHT22;10410;51.046;6.980;2023-06-22T10:37:32;28.70;99.30
20504;DHT22;10410;51.046;6.980;2023-06-22T10:44:33;28.20;99.90
20504;DHT22;10410;51.046;6.980;2023-06-22T10:51:33;27.50;99.90
20504;DHT22;10410;51.046;6.980;2023-06-22T10:58:35;26.70;99.90
20504;DHT22;10410;51.046;6.980;2023-06-22T11:05:35;26.00;99.90
20504;DHT22;10410;51.046;6.980;2023-06-22T11:12:35;25.00;99.90
20504;DHT22;10410;51.046;6.980;2023-06-22T11:19:36;24.30;99.90
20504;DHT22;10410;51.046;6.980;2023-06-22T11:26:37;23.90;99.90
20504;DHT22;10410;51.046;6.980;2023-06-22T11:33:37;23.60;99.90
20504;DHT22;10410;51.046;6.980;2023-06-22T11:40:37;23.30;99.90
20504;DHT22;10410;51.046;6.980;2023-06-22T11:47:38;23.20;99.90
20504;DHT22;10410;51.046;6.980;2023-06-22T11:54:39;23.20;99.90
20504;DHT22;10410;51.046;6.980;2023-06-22T12:01:40;23.20;99.90
20504;DHT22;10410;51.046;6.980;2023-06-22T12:08:40;23.10;99.90
20504;DHT22;10410;51.046;6.980;2023-06-22T12:15:40;22.90;99.90
20504;DHT22;10410;51.046;6.980;2023-06-22T12:22:41;23.00;99.90
20504;DHT22;10410;51.046;6.980;2023-06-22T12:29:42;23.30;99.90
20504;DHT22;10410;51.046;6.980;2023-06-22T12:36:42;23.60;99.90
20504;DHT22;10410;51.046;6.980;2023-06-22T12:43:43;23.60;99.90
20504;DHT22;10410;51.046;6.980;2023-06-22T12:50:43;23.90;99.90
20504;DHT22;10410;51.046;6.980;2023-06-22T12:57:44;24.60;99.90
20504;DHT22;10410;51.046;6.980;2023-06-22T13:04:44;25.00;99.90
20504;DHT22;10410;51.046;6.980;2023-06-22T13:11:44;25.20;99.90
20504;DHT22;10410;51.046;6.980;2023-06-22T13:18:45;25.40;99.90
20504;DHT22;10410;51.046;6.980;2023-06-22T13:25:45;26.10;99.90
20504;DHT22;10410;51.046;6.980;2023-06-22T13:32:45;26.50;99.90
20504;DHT22;10410;51.046;6.980;2023-06-22T13:39:46;26.90;99.90
20504;DHT22;10410;51.046;6.980;2023-06-22T13:46:46;26.90;99.90
20504;DHT22;10410;51.046;6.980;2023-06-22T13:53:47;27.10;99.90
20504;DHT22;10410;51.046;6.980;2023-06-22T14:00:47;27.50;99.90
20504;DHT22;10410;51.046;6.980;2023-06-22T14:07:49;27.60;99.90
20504;DHT22;10410;51.046;6.980;2023-06-22T14:14:49;27.70;99.90
20504;DHT22;10410;51.046;6.980;2023-06-22T14:21:50;27.70;99.90
20504;DHT22;10410;51.046;6.980;2023-06-22T14:28:50;27.70;99.90
20504;DHT22;10410;51.046;6.980;2023-06-22T14:35:51;27.50;99.90
20504;DHT22;10410;51.046;6.980;2023-06-22T14:42:51;27.30;99.90
20504;DHT22;10410;51.046;6.980;2023-06-22T14:49:51;27.30;99.90
20504;DHT22;10410;51.046;6.980;2023-06-22T14:56:51;27.10;99.90
20504;DHT22;10410;51.046;6.980;2023-06-22T15:03:52;26.70;99.90
20504;DHT22;10410;51.046;6.980;2023-06-22T15:10:53;26.50;99.90
20504;DHT22;10410;51.046;6.980;2023-06-22T15:17:53;26.40;99.90
20504;DHT22;10410;51.046;6.980;2023-06-22T15:24:54;26.10;99.90
20504;DHT22;10410;51.046;6.980;2023-06-22T15:31:58;25.30;99.90
20504;DHT22;10410;51.046;6.980;2023-06-22T15:38:58;24.70;99.90
20504;DHT22;10410;51.046;6.980;2023-06-22T15:45:59;24.10;99.90
20504;DHT22;10410;51.046;6.980;2023-06-22T15:52:59;23.80;99.90
20504;DHT22;10410;51.046;6.980;2023-06-22T16:00:00;23.50;99.90
20504;DHT22;10410;51.046;6.980;2023-06-22T16:07:00;23.30;99.90
20504;DHT22;10410;51.046;6.980;2023-06-22T16:14:00;23.10;99.90
20504;DHT22;10410;51.046;6.980;2023-06-22T16:21:01;22.90;99.90
20504;DHT22;10410;51.046;6.980;2023-06-22T16:28:01;22.70;99.90
20504;DHT22;10410;51.046;6.980;2023-06-22T16:35:02;22.60;99.90
20504;DHT22;10410;51.046;6.980;2023-06-22T16:42:03;22.50;99.90
20504;DHT22;10410;51.046;6.980;2023-06-22T16:49:03;22.40;99.90
20504;DHT22;10410;51.046;6.980;2023-06-22T16:56:04;22.40;99.90
20504;DHT22;10410;51.046;6.980;2023-06-22T17:03:06;22.20;99.90
20504;DHT22;10410;51.046;6.980;2023-06-22T17:10:08;22.20;99.90
20504;DHT22;10410;51.046;6.980;2023-06-22T17:17:13;22.20;99.90
20504;DHT22;10410;51.046;6.980;2023-06-22T17:24:17;22.30;99.90
20504;DHT22;10410;51.046;6.980;2023-06-22T17:31:18;22.40;99.90
20504;DHT22;10410;51.046;6.980;2023-06-22T17:38:21;22.50;99.90
20504;DHT22;10410;51.046;6.980;2023-06-22T17:45:23;22.60;99.90
20504;DHT22;10410;51.046;6.980;2023-06-22T17:52:26;22.60;99.90
20504;DHT22;10410;51.046;6.980;2023-06-22T17:59:28;22.60;99.90
20504;DHT22;10410;51.046;6.980;2023-06-22T18:06:30;22.50;99.90
20504;DHT22;10410;51.046;6.980;2023-06-22T18:13:33;22.60;99.90
20504;DHT22;10410;51.046;6.980;2023-06-22T18:20:34;22.60;99.90
20504;DHT22;10410;51.046;6.980;2023-06-22T18:27:36;22.60;99.90
20504;DHT22;10410;51.046;6.980;2023-06-22T18:34:39;22.60;99.90
20504;DHT22;10410;51.046;6.980;2023-06-22T18:41:41;22.50;99.90
20504;DHT22;10410;51.046;6.980;2023-06-22T18:48:41;22.40;99.90
20504;DHT22;10410;51.046;6.980;2023-06-22T18:55:43;22.30;99.90
20504;DHT22;10410;51.046;6.980;2023-06-22T19:02:58;22.10;99.90
20504;DHT22;10410;51.046;6.980;2023-06-22T19:17:31;21.80;99.90
20504;DHT22;10410;51.046;6.980;2023-06-22T19:25:02;21.60;99.90
20504;DHT22;10410;51.046;6.980;2023-06-22T19:32:03;21.10;99.90
20504;DHT22;10410;51.046;6.980;2023-06-22T19:39:04;20.60;99.90
20504;DHT22;10410;51.046;6.980;2023-06-22T19:46:04;20.20;99.90
20504;DHT22;10410;51.046;6.980;2023-06-22T19:53:13;19.70;99.90
20504;DHT22;10410;51.046;6.980;2023-06-22T20:00:20;19.10;99.90
20504;DHT22;10410;51.046;6.980;2023-06-22T20:07:21;18.60;99.90
20504;DHT22;10410;51.046;6.980;2023-06-22T20:14:21;18.00;99.90
20504;DHT22;10410;51.046;6.980;2023-06-22T20:21:24;17.70;99.90
20504;DHT22;10410;51.046;6.980;2023-06-22T20:28:25;17.50;99.90
20504;DHT22;10410;51.046;6.980;2023-06-22T20:35:26;17.20;99.90
20504;DHT22;10410;51.046;6.980;2023-06-22T20:42:26;17.10;99.90
20504;DHT22;10410;51.046;6.980;2023-06-22T20:49:27;17.00;99.90
20504;DHT22;10410;51.046;6.980;2023-06-22T20:56:27;16.90;99.90
20504;DHT22;10410;51.046;6.980;2023-06-22T21:03:28;17.00;99.90
20504;DHT22;10410;51.046;6.980;2023-06-22T21:10:28;17.00;99.90
20504;DHT22;10410;51.046;6.980;2023-06-22T21:17:28;17.10;99.90
20504;DHT22;10410;51.046;6.980;2023-06-22T21:24:29;17.10;99.90
20504;DHT22;10410;51.046;6.980;2023-06-22T21:31:30;17.20;99.90
20504;DHT22;10410;51.046;6.980;2023-06-22T21:38:31;17.30;99.90
20504;DHT22;10410;51.046;6.980;2023-06-22T21:45:32;17.30;99.90
20504;DHT22;10410;51.046;6.980;2023-06-22T21:52:33;17.40;99.90
20504;DHT22;10410;51.046;6.980;2023-06-22T21:59:33;17.40;99.90
20504;DHT22;10410;51.046;6.980;2023-06-22T22:06:33;17.40;99.90
20504;DHT22;10410;51.046;6.980;2023-06-22T22:13:34;17.40;99.90
20504;DHT22;10410;51.046;6.980;2023-06-22T22:20:35;17.40;99.90
20504;DHT22;10410;51.046;6.980;2023-06-22T22:27:36;17.40;99.90
20504;DHT22;10410;51.046;6.980;2023-06-22T22:34:36;17.40;99.90
20504;DHT22;10410;51.046;6.980;2023-06-22T22:41:37;17.30;99.90
20504;DHT22;10410;51.046;6.980;2023-06-22T22:48:38;17.20;99.90
20504;DHT22;10410;51.046;6.980;2023-06-22T22:55:38;17.20;99.90
20504;DHT22;10410;51.046;6.980;2023-06-22T23:02:39;17.20;99.90
20504;DHT22;10410;51.046;6.980;2023-06-22T23:09:40;17.10;99.90
20504;DHT22;10410;51.046;6.980;2023-06-22T23:16:41;17.10;99.90
20504;DHT22;10410;51.046;6.980;2023-06-22T23:23:43;16.90;99.90
20504;DHT22;10410;51.046;6.980;2023-06-22T23:30:43;16.80;99.90
20504;DHT22;10410;51.046;6.980;2023-06-22T23:37:44;16.70;99.90
20504;DHT22;10410;51.046;6.980;2023-06-22T23:44:48;16.70;99.90
20504;DHT22;10410;51.046;6.980;2023-06-22T23:51:49;16.60;99.90
20504;DHT22;10410;51.046;6.980;2023-06-22T23:58:50;16.60;99.90
